createdAt,value
2022-11-03T00:00:15.956Z,7.62
2022-11-03T00:01:16.096Z,7.64
2022-11-03T00:02:16.166Z,7.64
2022-11-03T00:03:16.061Z,7.62
2022-11-03T00:04:15.997Z,7.59
2022-11-03T00:05:15.847Z,7.61
2022-11-03T00:06:15.887Z,7.61
2022-11-03T00:07:16.118Z,7.62
2022-11-03T00:08:16.099Z,7.62
2022-11-03T00:09:15.913Z,7.62
2022-11-03T00:10:15.964Z,7.59
2022-11-03T00:11:15.997Z,7.62
2022-11-03T00:12:15.752Z,7.64
2022-11-03T00:13:15.731Z,7.69
2022-11-03T00:14:15.684Z,7.70
2022-11-03T00:15:15.752Z,7.67
2022-11-03T00:16:15.702Z,7.66
2022-11-03T00:17:15.592Z,7.67
2022-11-03T00:18:15.592Z,7.62
2022-11-03T00:19:15.598Z,7.62
2022-11-03T00:20:15.563Z,7.59
2022-11-03T00:21:15.553Z,7.58
2022-11-03T00:22:15.522Z,7.56
2022-11-03T00:23:15.541Z,7.53
2022-11-03T00:24:15.514Z,7.50
2022-11-03T00:25:16.291Z,7.50
2022-11-03T00:26:15.958Z,7.47
2022-11-03T00:27:15.772Z,7.46
2022-11-03T00:28:15.582Z,7.43
2022-11-03T00:29:15.528Z,7.40
2022-11-03T00:30:15.524Z,7.36
2022-11-03T00:31:15.443Z,7.32
2022-11-03T00:32:15.442Z,7.31
2022-11-03T00:33:15.507Z,7.31
2022-11-03T00:34:15.376Z,7.29
2022-11-03T00:35:15.372Z,7.28
2022-11-03T00:36:15.396Z,7.26
2022-11-03T00:37:15.553Z,7.26
2022-11-03T00:38:15.362Z,7.28
2022-11-03T00:39:15.464Z,7.28
2022-11-03T00:40:15.375Z,7.29
2022-11-03T00:41:15.871Z,7.29
2022-11-03T00:42:15.501Z,7.28
2022-11-03T00:43:19.742Z,7.28
2022-11-03T00:44:15.623Z,7.28
2022-11-03T00:45:15.353Z,7.26
2022-11-03T00:46:15.461Z,7.21
2022-11-03T00:47:16.878Z,7.22
2022-11-03T00:48:15.359Z,7.21
2022-11-03T00:49:15.541Z,7.19
2022-11-03T00:50:15.209Z,7.18
2022-11-03T00:51:15.346Z,7.14
2022-11-03T00:52:15.132Z,7.13
2022-11-03T00:53:15.312Z,7.04
2022-11-03T00:54:15.303Z,7.01
2022-11-03T00:55:15.164Z,7.01
2022-11-03T00:56:15.365Z,6.96
2022-11-03T00:57:15.196Z,6.93
2022-11-03T00:58:15.083Z,6.95
2022-11-03T00:59:15.429Z,6.96
2022-11-03T01:00:15.020Z,6.97
2022-11-03T01:01:15.192Z,6.96
2022-11-03T01:02:15.111Z,6.97
2022-11-03T01:03:14.982Z,7.00
2022-11-03T01:04:14.975Z,6.97
2022-11-03T01:05:14.980Z,6.95
2022-11-03T01:06:14.933Z,6.95
2022-11-03T01:07:14.932Z,6.95
2022-11-03T01:08:14.912Z,6.96
2022-11-03T01:09:14.922Z,6.97
2022-11-03T01:10:14.889Z,7.01
2022-11-03T01:11:14.865Z,7.04
2022-11-03T01:12:14.861Z,7.05
2022-11-03T01:13:14.864Z,7.08
2022-11-03T01:14:14.859Z,7.13
2022-11-03T01:15:14.833Z,7.13
2022-11-03T01:16:14.814Z,7.13
2022-11-03T01:17:14.813Z,7.10
2022-11-03T01:18:14.781Z,7.04
2022-11-03T01:19:14.791Z,7.03
2022-11-03T01:20:14.755Z,7.04
2022-11-03T01:21:14.751Z,7.05
2022-11-03T01:22:14.722Z,7.05
2022-11-03T01:23:14.725Z,7.01
2022-11-03T01:24:14.712Z,6.97
2022-11-03T01:25:14.692Z,6.97
2022-11-03T01:26:14.672Z,6.97
2022-11-03T01:27:14.664Z,6.95
2022-11-03T01:28:14.653Z,6.95
2022-11-03T01:29:14.709Z,6.90
2022-11-03T01:30:14.622Z,6.87
2022-11-03T01:31:14.612Z,6.82
2022-11-03T01:32:14.610Z,6.77
2022-11-03T01:33:14.614Z,6.72
2022-11-03T01:34:14.602Z,6.68
2022-11-03T01:35:14.573Z,6.64
2022-11-03T01:36:14.555Z,6.60
2022-11-03T01:37:14.538Z,6.56
2022-11-03T01:38:14.523Z,6.56
2022-11-03T01:39:14.533Z,6.54
2022-11-03T01:40:14.492Z,6.57
2022-11-03T01:41:14.523Z,6.60
2022-11-03T01:42:14.487Z,6.59
2022-11-03T01:43:14.452Z,6.59
2022-11-03T01:44:14.451Z,6.60
2022-11-03T01:45:14.442Z,6.64
2022-11-03T01:46:14.427Z,6.67
2022-11-03T01:47:14.402Z,6.70
2022-11-03T01:48:14.395Z,6.68
2022-11-03T01:49:14.392Z,6.67
2022-11-03T01:50:14.370Z,6.65
2022-11-03T01:51:14.361Z,6.67
2022-11-03T01:52:14.333Z,6.67
2022-11-03T01:53:14.339Z,6.68
2022-11-03T01:54:14.346Z,6.67
2022-11-03T01:55:14.300Z,6.64
2022-11-03T01:56:14.281Z,6.64
2022-11-03T01:57:14.303Z,6.64
2022-11-03T01:58:14.270Z,6.56
2022-11-03T01:59:14.273Z,6.50
2022-11-03T02:00:14.263Z,6.46
2022-11-03T02:01:14.336Z,6.43
2022-11-03T02:02:14.308Z,6.39
2022-11-03T02:03:14.192Z,6.34
2022-11-03T02:04:14.210Z,6.34
2022-11-03T02:05:14.193Z,6.34
2022-11-03T02:06:14.163Z,6.35
2022-11-03T02:07:14.162Z,6.34
2022-11-03T02:08:14.123Z,6.31
2022-11-03T02:09:14.132Z,6.32
2022-11-03T02:10:14.100Z,6.31
2022-11-03T02:11:14.100Z,6.32
2022-11-03T02:12:14.071Z,6.32
2022-11-03T02:13:14.100Z,6.31
2022-11-03T02:14:14.048Z,6.25
2022-11-03T02:15:14.062Z,6.20
2022-11-03T02:16:14.041Z,6.20
2022-11-03T02:17:14.011Z,6.26
2022-11-03T02:18:13.992Z,6.29
2022-11-03T02:19:13.990Z,6.29
2022-11-03T02:20:13.982Z,6.32
2022-11-03T02:21:13.961Z,6.34
2022-11-03T02:22:13.940Z,6.35
2022-11-03T02:23:13.941Z,6.35
2022-11-03T02:24:13.922Z,6.34
2022-11-03T02:25:13.922Z,6.32
2022-11-03T02:26:13.899Z,6.29
2022-11-03T02:27:13.883Z,6.29
2022-11-03T02:28:13.864Z,6.29
2022-11-03T02:29:13.864Z,6.29
2022-11-03T02:30:13.851Z,6.29
2022-11-03T02:31:13.831Z,6.28
2022-11-03T02:32:13.812Z,6.26
2022-11-03T02:33:13.806Z,6.25
2022-11-03T02:34:13.793Z,6.25
2022-11-03T02:35:13.790Z,6.19
2022-11-03T02:36:13.751Z,6.16
2022-11-03T02:37:13.736Z,6.17
2022-11-03T02:38:13.730Z,6.19
2022-11-03T02:39:13.700Z,6.20
2022-11-03T02:40:13.711Z,6.20
2022-11-03T02:41:13.678Z,6.17
2022-11-03T02:42:13.671Z,6.17
2022-11-03T02:43:13.690Z,6.19
2022-11-03T02:44:13.659Z,6.19
2022-11-03T02:45:17.283Z,6.19
2022-11-03T02:46:13.626Z,6.25
2022-11-03T02:47:13.597Z,6.25
2022-11-03T02:48:13.587Z,6.25
2022-11-03T02:49:13.569Z,6.20
2022-11-03T02:50:13.581Z,6.20
2022-11-03T02:51:13.568Z,6.17
2022-11-03T02:52:13.539Z,6.16
2022-11-03T02:53:13.536Z,6.16
2022-11-03T02:54:13.508Z,6.15
2022-11-03T02:55:13.499Z,6.09
2022-11-03T02:56:13.499Z,6.05
2022-11-03T02:57:13.470Z,6.01
2022-11-03T02:58:13.481Z,6.01
2022-11-03T02:59:13.516Z,6.02
2022-11-03T03:00:13.461Z,6.02
2022-11-03T03:01:13.531Z,5.99
2022-11-03T03:02:13.550Z,5.98
2022-11-03T03:03:13.388Z,5.97
2022-11-03T03:04:13.369Z,5.98
2022-11-03T03:05:13.360Z,6.01
2022-11-03T03:06:13.370Z,5.97
2022-11-03T03:07:13.350Z,5.97
2022-11-03T03:08:13.336Z,5.97
2022-11-03T03:09:13.307Z,5.99
2022-11-03T03:10:13.299Z,6.01
2022-11-03T03:11:13.303Z,5.99
2022-11-03T03:12:13.269Z,5.99
2022-11-03T03:13:13.258Z,5.99
2022-11-03T03:14:13.252Z,5.98
2022-11-03T03:15:13.230Z,5.99
2022-11-03T03:16:13.231Z,6.01
2022-11-03T03:17:13.211Z,6.01
2022-11-03T03:18:13.247Z,5.98
2022-11-03T03:19:13.179Z,5.98
2022-11-03T03:20:13.160Z,5.94
2022-11-03T03:21:13.156Z,5.91
2022-11-03T03:22:13.129Z,5.90
2022-11-03T03:23:13.357Z,5.91
2022-11-03T03:24:13.099Z,5.92
2022-11-03T03:25:13.099Z,5.95
2022-11-03T03:26:13.089Z,5.91
2022-11-03T03:27:13.068Z,5.88
2022-11-03T03:28:13.063Z,5.84
2022-11-03T03:29:13.042Z,5.79
2022-11-03T03:30:13.049Z,5.74
2022-11-03T03:31:13.007Z,5.76
2022-11-03T03:32:13.000Z,5.76
2022-11-03T03:33:12.994Z,5.76
2022-11-03T03:34:36.505Z,5.77
2022-11-03T03:35:13.978Z,5.73
2022-11-03T03:36:12.952Z,5.69
2022-11-03T03:37:12.949Z,5.67
2022-11-03T03:38:12.919Z,5.65
2022-11-03T03:39:12.908Z,5.64
2022-11-03T03:40:12.888Z,5.65
2022-11-03T03:41:12.886Z,5.70
2022-11-03T03:42:12.889Z,5.73
2022-11-03T03:43:12.849Z,5.73
2022-11-03T03:44:12.837Z,5.74
2022-11-03T03:45:12.829Z,5.77
2022-11-03T03:46:12.883Z,5.77
2022-11-03T03:47:12.797Z,5.80
2022-11-03T03:48:12.808Z,5.81
2022-11-03T03:49:12.768Z,5.80
2022-11-03T03:50:12.762Z,5.80
2022-11-03T03:51:12.748Z,5.79
2022-11-03T03:52:12.758Z,5.74
2022-11-03T03:53:12.723Z,5.67
2022-11-03T03:54:12.711Z,5.65
2022-11-03T03:55:12.756Z,5.67
2022-11-03T03:56:12.688Z,5.65
2022-11-03T03:57:12.680Z,5.67
2022-11-03T03:58:12.649Z,5.67
2022-11-03T03:59:12.628Z,5.67
2022-11-03T04:00:12.617Z,5.65
2022-11-03T04:01:12.746Z,5.64
2022-11-03T04:02:12.786Z,5.62
2022-11-03T04:03:12.582Z,5.62
2022-11-03T04:04:12.568Z,5.62
2022-11-03T04:05:12.555Z,5.56
2022-11-03T04:06:12.545Z,5.59
2022-11-03T04:07:12.532Z,5.58
2022-11-03T04:08:12.528Z,5.52
2022-11-03T04:09:12.496Z,5.51
2022-11-03T04:10:12.486Z,5.49
2022-11-03T04:11:12.484Z,5.52
2022-11-03T04:12:12.467Z,5.55
2022-11-03T04:13:12.457Z,5.56
2022-11-03T04:14:12.440Z,5.52
2022-11-03T04:15:12.413Z,5.52
2022-11-03T04:16:12.406Z,5.54
2022-11-03T04:17:12.395Z,5.52
2022-11-03T04:18:12.412Z,5.49
2022-11-03T04:19:12.366Z,5.46
2022-11-03T04:20:12.356Z,5.44
2022-11-03T04:21:12.337Z,5.47
2022-11-03T04:22:12.328Z,5.49
2022-11-03T04:23:12.337Z,5.51
2022-11-03T04:24:12.310Z,5.54
2022-11-03T04:25:12.284Z,5.54
2022-11-03T04:26:12.280Z,5.54
2022-11-03T04:27:12.273Z,5.55
2022-11-03T04:28:12.278Z,5.54
2022-11-03T04:29:12.228Z,5.54
2022-11-03T04:30:12.237Z,5.52
2022-11-03T04:31:12.209Z,5.49
2022-11-03T04:32:12.206Z,5.41
2022-11-03T04:33:12.197Z,5.37
2022-11-03T04:34:12.181Z,5.36
2022-11-03T04:35:12.150Z,5.34
2022-11-03T04:36:12.147Z,5.38
2022-11-03T04:37:12.126Z,5.37
2022-11-03T04:38:12.137Z,5.38
2022-11-03T04:39:12.098Z,5.40
2022-11-03T04:40:12.096Z,5.41
2022-11-03T04:41:12.078Z,5.41
2022-11-03T04:42:12.065Z,5.36
2022-11-03T04:43:12.067Z,5.31
2022-11-03T04:44:12.038Z,5.26
2022-11-03T04:45:12.019Z,5.28
2022-11-03T04:46:12.008Z,5.28
2022-11-03T04:47:11.990Z,5.22
2022-11-03T04:48:12.012Z,5.20
2022-11-03T04:49:11.984Z,5.25
2022-11-03T04:50:11.959Z,5.28
2022-11-03T04:51:11.986Z,5.29
2022-11-03T04:52:11.936Z,5.26
2022-11-03T04:53:11.938Z,5.25
2022-11-03T04:54:11.911Z,5.25
2022-11-03T04:55:11.887Z,5.26
2022-11-03T04:56:11.898Z,5.26
2022-11-03T04:57:19.004Z,5.25
2022-11-03T04:58:11.862Z,5.28
2022-11-03T04:59:11.842Z,5.26
2022-11-03T05:00:11.829Z,5.20
2022-11-03T05:01:11.990Z,5.16
2022-11-03T05:02:11.807Z,5.08
2022-11-03T05:03:12.031Z,5.01
2022-11-03T05:04:11.773Z,4.98
2022-11-03T05:05:11.755Z,4.95
2022-11-03T05:06:11.742Z,4.92
2022-11-03T05:07:11.733Z,4.90
2022-11-03T05:08:11.741Z,4.90
2022-11-03T05:09:11.694Z,4.90
2022-11-03T05:10:11.694Z,4.87
2022-11-03T05:11:11.673Z,4.89
2022-11-03T05:12:11.668Z,4.90
2022-11-03T05:13:11.661Z,4.95
2022-11-03T05:14:11.641Z,5.00
2022-11-03T05:15:11.613Z,5.01
2022-11-03T05:16:11.612Z,5.04
2022-11-03T05:17:11.606Z,5.07
2022-11-03T05:18:11.606Z,5.15
2022-11-03T05:19:11.576Z,5.20
2022-11-03T05:20:11.564Z,5.22
2022-11-03T05:21:11.547Z,5.25
2022-11-03T05:22:11.532Z,5.25
2022-11-03T05:23:11.532Z,5.26
2022-11-03T05:24:11.531Z,5.25
2022-11-03T05:25:11.482Z,5.23
2022-11-03T05:26:11.522Z,5.25
2022-11-03T05:27:11.474Z,5.26
2022-11-03T05:28:11.452Z,5.28
2022-11-03T05:29:11.434Z,5.28
2022-11-03T05:30:11.422Z,5.31
2022-11-03T05:31:11.414Z,5.25
2022-11-03T05:32:11.413Z,5.22
2022-11-03T05:33:11.381Z,5.18
2022-11-03T05:34:11.370Z,5.16
2022-11-03T05:35:11.352Z,5.16
2022-11-03T05:36:11.342Z,5.18
2022-11-03T05:37:11.340Z,5.16
2022-11-03T05:38:11.314Z,5.15
2022-11-03T05:39:11.292Z,5.13
2022-11-03T05:40:11.283Z,5.10
2022-11-03T05:41:11.274Z,5.13
2022-11-03T05:42:11.281Z,5.16
2022-11-03T05:43:12.253Z,5.18
2022-11-03T05:44:11.243Z,5.15
2022-11-03T05:45:11.214Z,5.10
2022-11-03T05:46:11.222Z,5.07
2022-11-03T05:47:11.211Z,5.07
2022-11-03T05:48:11.211Z,5.07
2022-11-03T05:49:11.153Z,5.12
2022-11-03T05:50:11.163Z,5.15
2022-11-03T05:51:11.144Z,5.19
2022-11-03T05:52:11.142Z,5.23
2022-11-03T05:53:11.122Z,5.26
2022-11-03T05:54:14.374Z,5.28
2022-11-03T05:55:12.084Z,5.23
2022-11-03T05:56:11.080Z,5.22
2022-11-03T05:57:11.081Z,5.22
2022-11-03T05:58:11.059Z,5.23
2022-11-03T05:59:11.063Z,5.23
2022-11-03T06:00:11.022Z,5.22
2022-11-03T06:01:11.106Z,5.20
2022-11-03T06:02:11.170Z,5.22
2022-11-03T06:05:38.401Z,5.22
2022-11-03T06:06:38.396Z,5.19
2022-11-03T06:07:38.394Z,5.16
2022-11-03T06:08:41.593Z,5.18
2022-11-03T06:09:39.324Z,5.16
2022-11-03T06:10:38.335Z,5.13
2022-11-03T06:11:38.334Z,5.12
2022-11-03T06:12:38.334Z,5.13
2022-11-03T06:13:38.304Z,5.13
2022-11-03T06:14:38.302Z,5.12
2022-11-03T06:15:38.274Z,5.08
2022-11-03T06:16:38.433Z,5.10
2022-11-03T06:17:38.271Z,5.10
2022-11-03T06:18:38.229Z,5.16
2022-11-03T06:19:38.222Z,5.19
2022-11-03T06:20:39.256Z,5.16
2022-11-03T06:21:41.927Z,5.13
2022-11-03T06:22:39.199Z,5.15
2022-11-03T06:23:38.184Z,5.15
2022-11-03T06:24:38.154Z,5.16
2022-11-03T06:25:38.155Z,5.15
2022-11-03T06:26:38.127Z,5.18
2022-11-03T06:27:38.144Z,5.18
2022-11-03T06:28:38.103Z,5.15
2022-11-03T06:29:38.111Z,5.12
2022-11-03T06:30:38.119Z,5.08
2022-11-03T06:31:38.073Z,5.10
2022-11-03T06:32:38.063Z,5.08
2022-11-03T06:33:38.516Z,5.08
2022-11-03T06:34:38.044Z,5.12
2022-11-03T06:35:37.994Z,5.13
2022-11-03T06:36:38.002Z,5.08
2022-11-03T06:37:38.002Z,5.08
2022-11-03T06:38:37.977Z,5.10
2022-11-03T06:39:37.964Z,5.15
2022-11-03T06:40:37.944Z,5.19
2022-11-03T06:41:37.970Z,5.19
2022-11-03T06:42:37.940Z,5.16
2022-11-03T06:43:37.914Z,5.19
2022-11-03T06:44:37.884Z,5.19
2022-11-03T06:45:37.881Z,5.16
2022-11-03T06:46:37.873Z,5.18
2022-11-03T06:47:37.893Z,5.19
2022-11-03T06:48:37.844Z,5.22
2022-11-03T06:49:37.836Z,5.20
2022-11-03T06:50:42.290Z,5.15
2022-11-03T06:51:38.791Z,5.16
2022-11-03T06:52:37.945Z,5.19
2022-11-03T06:53:37.774Z,5.22
2022-11-03T06:54:37.763Z,5.28
2022-11-03T06:55:37.743Z,5.29
2022-11-03T06:56:37.742Z,5.36
2022-11-03T06:57:37.741Z,5.37
2022-11-03T06:58:37.723Z,5.37
2022-11-03T06:59:37.693Z,5.38
2022-11-03T07:00:40.010Z,5.43
2022-11-03T07:01:37.751Z,5.49
2022-11-03T07:02:37.804Z,5.52
2022-11-03T07:03:37.650Z,5.56
2022-11-03T07:04:37.635Z,5.59
2022-11-03T07:05:37.630Z,5.62
2022-11-03T07:06:37.613Z,5.65
2022-11-03T07:07:37.606Z,5.70
2022-11-03T07:08:37.581Z,5.73
2022-11-03T07:09:37.582Z,5.77
2022-11-03T07:10:37.553Z,5.81
2022-11-03T07:11:37.543Z,5.83
2022-11-03T07:12:37.557Z,5.84
2022-11-03T07:13:37.510Z,5.90
2022-11-03T07:14:37.502Z,5.87
2022-11-03T07:15:37.517Z,5.84
2022-11-03T07:16:37.677Z,5.90
2022-11-03T07:17:37.473Z,5.91
2022-11-03T07:18:37.462Z,5.94
2022-11-03T07:19:37.432Z,5.97
2022-11-03T07:20:37.423Z,5.99
2022-11-03T07:21:37.426Z,6.01
2022-11-03T07:22:37.413Z,6.06
2022-11-03T07:23:37.388Z,6.10
2022-11-03T07:24:37.373Z,6.10
2022-11-03T07:25:37.360Z,6.16
2022-11-03T07:26:37.329Z,6.19
2022-11-03T07:27:37.349Z,6.22
2022-11-03T07:28:37.322Z,6.28
2022-11-03T07:29:37.312Z,6.31
2022-11-03T07:30:37.292Z,6.35
2022-11-03T07:31:37.290Z,6.38
2022-11-03T07:32:37.291Z,6.36
2022-11-03T07:33:37.250Z,6.39
2022-11-03T07:34:37.241Z,6.43
2022-11-03T07:36:08.477Z,6.44
2022-11-03T07:36:38.231Z,6.44
2022-11-03T07:37:37.221Z,6.47
2022-11-03T07:38:37.179Z,6.47
2022-11-03T07:39:37.169Z,6.46
2022-11-03T07:40:37.161Z,6.47
2022-11-03T07:41:37.152Z,6.50
2022-11-03T07:42:37.153Z,6.54
2022-11-03T07:43:37.124Z,6.57
2022-11-03T07:44:37.114Z,6.62
2022-11-03T07:45:37.099Z,6.67
2022-11-03T07:46:44.636Z,6.72
2022-11-03T07:47:37.057Z,6.74
2022-11-03T07:48:37.039Z,6.75
2022-11-03T07:49:37.047Z,6.77
2022-11-03T07:50:36.997Z,6.82
2022-11-03T07:51:36.988Z,6.83
2022-11-03T07:52:36.993Z,6.82
2022-11-03T07:53:36.962Z,6.82
2022-11-03T07:54:36.945Z,6.85
2022-11-03T07:55:36.928Z,6.83
2022-11-03T07:56:37.002Z,6.83
2022-11-03T07:57:36.919Z,6.83
2022-11-03T07:58:36.914Z,6.86
2022-11-03T07:59:36.886Z,6.85
2022-11-03T08:00:36.878Z,6.85
2022-11-03T08:01:36.985Z,6.85
2022-11-03T08:02:36.914Z,6.87
2022-11-03T08:03:36.831Z,6.89
2022-11-03T08:04:36.817Z,6.92
2022-11-03T08:05:36.806Z,6.96
2022-11-03T08:06:36.798Z,6.97
2022-11-03T08:07:36.798Z,6.96
2022-11-03T08:08:36.768Z,6.97
2022-11-03T08:09:36.764Z,6.96
2022-11-03T08:10:36.749Z,7.01
2022-11-03T08:11:36.727Z,7.05
2022-11-03T08:12:36.735Z,7.10
2022-11-03T08:13:36.698Z,7.13
2022-11-03T08:14:36.843Z,7.15
2022-11-03T08:15:36.675Z,7.18
2022-11-03T08:16:36.677Z,7.23
2022-11-03T08:17:36.664Z,7.29
2022-11-03T08:18:36.647Z,7.36
2022-11-03T08:19:36.627Z,7.40
2022-11-03T08:20:36.627Z,7.48
2022-11-03T08:21:36.603Z,7.55
2022-11-03T08:22:36.598Z,7.62
2022-11-03T08:23:36.589Z,7.70
2022-11-03T08:24:36.570Z,7.78
2022-11-03T08:25:36.581Z,7.84
2022-11-03T08:26:36.537Z,7.91
2022-11-03T08:27:36.519Z,7.96
2022-11-03T08:28:36.528Z,8.05
2022-11-03T08:29:36.499Z,8.11
2022-11-03T08:30:36.496Z,8.18
2022-11-03T08:31:36.467Z,8.27
2022-11-03T08:32:36.473Z,8.34
2022-11-03T08:33:36.469Z,8.44
2022-11-03T08:34:36.448Z,8.53
2022-11-03T08:35:36.433Z,8.61
2022-11-03T08:36:36.419Z,8.64
2022-11-03T08:37:36.397Z,8.63
2022-11-03T08:38:36.405Z,8.68
2022-11-03T08:39:36.389Z,8.75
2022-11-03T08:40:36.367Z,8.81
2022-11-03T08:41:36.348Z,8.86
2022-11-03T08:42:36.343Z,8.92
2022-11-03T08:43:36.328Z,8.95
2022-11-03T08:44:36.308Z,8.99
2022-11-03T08:45:36.295Z,9.02
2022-11-03T08:46:36.288Z,9.03
2022-11-03T08:47:36.275Z,9.08
2022-11-03T08:48:36.279Z,9.15
2022-11-03T08:49:36.237Z,9.18
2022-11-03T08:50:36.227Z,9.19
2022-11-03T08:51:40.129Z,9.24
2022-11-03T08:52:37.206Z,9.27
2022-11-03T08:53:36.208Z,9.33
2022-11-03T08:54:36.178Z,9.39
2022-11-03T08:55:36.157Z,9.44
2022-11-03T08:56:36.152Z,9.48
2022-11-03T08:57:36.139Z,9.48
2022-11-03T08:58:36.149Z,9.49
2022-11-03T08:59:36.114Z,9.59
2022-11-03T09:00:40.724Z,9.63
2022-11-03T09:01:37.113Z,9.67
2022-11-03T09:02:36.124Z,9.73
2022-11-03T09:03:36.111Z,9.80
2022-11-03T09:04:36.028Z,9.82
2022-11-03T09:05:36.038Z,9.87
2022-11-03T09:06:36.011Z,9.87
2022-11-03T09:10:39.799Z,9.99
2022-11-03T09:11:36.937Z,10.00
2022-11-03T09:12:35.927Z,10.05
2022-11-03T09:13:35.933Z,10.06
2022-11-03T09:14:35.897Z,10.07
2022-11-03T09:15:35.884Z,10.10
2022-11-03T09:16:35.879Z,10.13
2022-11-03T09:17:35.862Z,10.17
2022-11-03T09:18:35.869Z,10.21
2022-11-03T09:19:35.829Z,10.21
2022-11-03T09:20:35.828Z,10.23
2022-11-03T09:21:35.813Z,10.24
2022-11-03T09:22:35.799Z,10.24
2022-11-03T09:23:35.825Z,10.25
2022-11-03T09:24:35.771Z,10.27
2022-11-03T09:25:35.758Z,10.25
2022-11-03T09:26:35.761Z,10.25
2022-11-03T09:27:35.719Z,10.25
2022-11-03T09:28:35.740Z,10.24
2022-11-03T09:29:58.625Z,10.21
2022-11-03T09:30:36.690Z,10.20
2022-11-03T09:31:35.676Z,10.20
2022-11-03T09:32:35.659Z,10.20
2022-11-03T09:33:35.659Z,10.20
2022-11-03T09:34:35.648Z,10.20
2022-11-03T09:35:35.618Z,10.21
2022-11-03T09:36:35.620Z,10.24
2022-11-03T09:37:35.590Z,10.27
2022-11-03T09:38:35.590Z,10.28
2022-11-03T09:39:35.581Z,10.28
2022-11-03T09:40:35.645Z,10.33
2022-11-03T09:41:55.873Z,10.33
2022-11-03T09:42:36.532Z,10.38
2022-11-03T09:43:35.529Z,10.39
2022-11-03T09:44:35.508Z,10.39
2022-11-03T09:45:35.506Z,10.42
2022-11-03T09:46:35.479Z,10.41
2022-11-03T09:47:35.456Z,10.46
2022-11-03T09:48:35.453Z,10.49
2022-11-03T09:49:35.468Z,10.51
2022-11-03T09:50:35.439Z,10.58
2022-11-03T09:51:35.449Z,10.64
2022-11-03T09:52:35.397Z,10.68
2022-11-03T09:53:35.381Z,10.76
2022-11-03T09:54:35.379Z,10.77
2022-11-03T09:55:35.350Z,10.82
2022-11-03T09:56:35.358Z,10.84
2022-11-03T09:57:35.319Z,10.86
2022-11-03T09:58:35.317Z,10.84
2022-11-03T09:59:35.318Z,10.84
2022-11-03T10:00:35.289Z,10.84
2022-11-03T10:01:35.378Z,10.84
2022-11-03T10:02:35.319Z,10.86
2022-11-03T10:03:35.264Z,10.84
2022-11-03T10:04:35.237Z,10.87
2022-11-03T10:05:35.226Z,10.89
2022-11-03T10:06:35.221Z,10.89
2022-11-03T10:07:35.200Z,10.92
2022-11-03T10:08:35.200Z,10.90
2022-11-03T10:09:35.170Z,10.94
2022-11-03T10:10:35.163Z,10.98
2022-11-03T10:11:35.139Z,11.01
2022-11-03T10:12:35.143Z,11.01
2022-11-03T10:13:35.129Z,11.04
2022-11-03T10:14:35.111Z,11.05
2022-11-03T10:15:35.103Z,11.10
2022-11-03T10:16:35.094Z,11.12
2022-11-03T10:17:35.084Z,11.13
2022-11-03T10:18:35.068Z,11.15
2022-11-03T10:19:35.078Z,11.16
2022-11-03T10:20:35.032Z,11.16
2022-11-03T10:21:35.012Z,11.19
2022-11-03T10:22:40.771Z,11.19
2022-11-03T10:23:35.998Z,11.23
2022-11-03T10:24:35.098Z,11.22
2022-11-03T10:25:34.957Z,11.25
2022-11-03T10:26:34.951Z,11.26
2022-11-03T10:27:34.930Z,11.30
2022-11-03T10:28:34.937Z,11.30
2022-11-03T10:29:37.384Z,11.31
2022-11-03T10:30:45.370Z,11.31
2022-11-03T10:31:35.881Z,11.31
2022-11-03T10:32:34.870Z,11.34
2022-11-03T10:33:34.864Z,11.34
2022-11-03T10:34:34.850Z,11.37
2022-11-03T10:35:34.823Z,11.38
2022-11-03T10:36:34.825Z,11.40
2022-11-03T10:37:34.805Z,11.38
2022-11-03T10:38:34.810Z,11.40
2022-11-03T10:39:34.768Z,11.40
2022-11-03T10:40:50.005Z,11.41
2022-11-03T10:41:35.742Z,11.43
2022-11-03T10:42:35.987Z,11.44
2022-11-03T10:43:34.731Z,11.45
2022-11-03T10:44:34.708Z,11.48
2022-11-03T10:45:34.700Z,11.48
2022-11-03T10:46:51.456Z,11.48
2022-11-03T10:47:35.665Z,11.49
2022-11-03T10:48:34.688Z,11.49
2022-11-03T10:49:37.692Z,11.48
2022-11-03T10:50:34.638Z,11.51
2022-11-03T10:51:34.610Z,11.49
2022-11-03T10:53:34.585Z,11.52
2022-11-03T10:54:34.591Z,11.52
2022-11-03T10:55:34.609Z,11.52
2022-11-03T10:56:34.560Z,11.52
2022-11-03T10:57:34.539Z,11.53
2022-11-03T10:58:34.521Z,11.55
2022-11-03T10:59:34.525Z,11.52
2022-11-03T11:00:34.531Z,11.55
2022-11-03T11:01:34.624Z,11.55
2022-11-03T11:02:34.572Z,11.55
2022-11-03T11:03:34.462Z,11.55
2022-11-03T11:04:34.517Z,11.56
2022-11-03T11:05:34.431Z,11.55
2022-11-03T11:06:34.432Z,11.55
2022-11-03T11:07:34.410Z,11.55
2022-11-03T11:08:34.487Z,11.53
2022-11-03T11:09:34.400Z,11.53
2022-11-03T11:10:34.383Z,11.52
2022-11-03T11:11:55.355Z,11.53
2022-11-03T11:12:34.342Z,11.53
2022-11-03T11:13:34.332Z,11.53
2022-11-03T11:14:34.344Z,11.53
2022-11-03T11:15:34.290Z,11.53
2022-11-03T11:16:34.294Z,11.52
2022-11-03T11:17:34.261Z,11.53
2022-11-03T11:18:34.260Z,11.53
2022-11-03T11:19:34.261Z,11.55
2022-11-03T11:20:34.231Z,11.53
2022-11-03T11:21:35.682Z,11.53
2022-11-03T11:22:34.210Z,11.55
2022-11-03T11:23:34.207Z,11.53
2022-11-03T11:24:34.181Z,11.52
2022-11-03T11:25:34.163Z,11.52
2022-11-03T11:26:34.170Z,11.52
2022-11-03T11:27:34.132Z,11.53
2022-11-03T11:28:34.123Z,11.53
2022-11-03T11:29:34.121Z,11.55
2022-11-03T11:30:34.101Z,11.55
2022-11-03T11:31:34.071Z,11.55
2022-11-03T11:32:34.079Z,11.56
2022-11-03T11:33:34.066Z,11.58
2022-11-03T11:34:34.075Z,11.56
2022-11-03T11:35:34.030Z,11.56
2022-11-03T11:36:34.032Z,11.56
2022-11-03T11:37:34.012Z,11.59
2022-11-03T11:38:34.003Z,11.58
2022-11-03T11:39:34.001Z,11.58
2022-11-03T11:40:33.975Z,11.58
2022-11-03T11:41:33.953Z,11.58
2022-11-03T11:42:36.436Z,11.59
2022-11-03T11:43:33.924Z,11.59
2022-11-03T11:44:33.934Z,11.60
2022-11-03T11:45:33.902Z,11.60
2022-11-03T11:46:33.900Z,11.60
2022-11-03T11:47:33.884Z,11.59
2022-11-03T11:48:33.869Z,11.59
2022-11-03T11:49:33.871Z,11.59
2022-11-03T11:50:33.833Z,11.62
2022-11-03T11:51:33.813Z,11.62
2022-11-03T11:52:33.821Z,11.62
2022-11-03T11:53:33.805Z,11.60
2022-11-03T11:54:33.806Z,11.62
2022-11-03T11:55:33.770Z,11.62
2022-11-03T11:56:33.775Z,11.62
2022-11-03T11:57:33.744Z,11.62
2022-11-03T11:58:33.737Z,11.62
2022-11-03T11:59:33.743Z,11.62
2022-11-03T12:00:33.707Z,11.63
2022-11-03T12:01:33.768Z,11.62
2022-11-03T12:02:33.687Z,11.62
2022-11-03T12:03:33.811Z,11.62
2022-11-03T12:04:33.675Z,11.62
2022-11-03T12:05:33.633Z,11.63
2022-11-03T12:06:33.713Z,11.62
2022-11-03T12:07:33.635Z,11.63
2022-11-03T12:08:33.606Z,11.63
2022-11-03T12:09:33.600Z,11.65
2022-11-03T12:10:33.575Z,11.62
2022-11-03T12:11:33.604Z,11.63
2022-11-03T12:12:33.546Z,11.63
2022-11-03T12:13:33.535Z,11.65
2022-11-03T12:14:33.533Z,11.63
2022-11-03T12:15:33.507Z,11.65
2022-11-03T12:16:33.504Z,11.65
2022-11-03T12:17:33.488Z,11.65
2022-11-03T12:18:38.853Z,11.65
2022-11-03T12:19:34.465Z,11.63
2022-11-03T12:20:33.441Z,11.65
2022-11-03T12:21:33.455Z,11.65
2022-11-03T12:22:33.420Z,11.67
2022-11-03T12:23:33.403Z,11.65
2022-11-03T12:24:33.411Z,11.65
2022-11-03T12:25:33.376Z,11.67
2022-11-03T12:26:33.396Z,11.67
2022-11-03T12:27:33.354Z,11.67
2022-11-03T12:28:33.346Z,11.68
2022-11-03T12:29:33.322Z,11.68
2022-11-03T12:30:38.420Z,11.70
2022-11-03T12:31:36.918Z,11.68
2022-11-03T12:32:35.289Z,11.70
2022-11-03T12:33:33.277Z,11.70
2022-11-03T12:34:33.254Z,11.70
2022-11-03T12:35:33.259Z,11.71
2022-11-03T12:36:33.293Z,11.71
2022-11-03T12:37:33.214Z,11.71
2022-11-03T12:38:33.203Z,11.73
2022-11-03T12:39:33.209Z,11.71
2022-11-03T12:40:33.184Z,11.71
2022-11-03T12:41:33.162Z,11.71
2022-11-03T12:42:33.163Z,11.71
2022-11-03T12:43:33.135Z,11.74
2022-11-03T12:44:33.196Z,11.74
2022-11-03T12:45:33.105Z,11.74
2022-11-03T12:46:33.115Z,11.77
2022-11-03T12:47:33.088Z,11.78
2022-11-03T12:48:33.186Z,11.81
2022-11-03T12:49:33.077Z,11.80
2022-11-03T12:50:33.056Z,11.81
2022-11-03T12:51:33.036Z,11.83
2022-11-03T12:52:33.025Z,11.83
2022-11-03T12:53:33.016Z,11.81
2022-11-03T12:54:33.026Z,11.81
2022-11-03T12:55:32.995Z,11.81
2022-11-03T12:56:32.983Z,11.83
2022-11-03T12:57:32.962Z,11.80
2022-11-03T12:58:32.949Z,11.80
2022-11-03T12:59:32.934Z,11.80
2022-11-03T13:00:32.945Z,11.81
2022-11-03T13:01:33.026Z,11.80
2022-11-03T13:02:33.064Z,11.78
2022-11-03T13:03:32.876Z,11.78
2022-11-03T13:04:32.913Z,11.77
2022-11-03T13:05:32.879Z,11.77
2022-11-03T13:06:32.856Z,11.77
2022-11-03T13:07:34.881Z,11.77
2022-11-03T13:08:32.818Z,11.76
2022-11-03T13:09:32.809Z,11.76
2022-11-03T13:10:32.806Z,11.73
2022-11-03T13:11:32.766Z,11.74
2022-11-03T13:12:32.764Z,11.73
2022-11-03T13:13:32.748Z,11.74
2022-11-03T13:14:32.737Z,11.71
2022-11-03T13:15:32.737Z,11.73
2022-11-03T13:16:32.715Z,11.71